createdAt,value
2023-05-02T00:02:03.674Z,102013.31
2023-05-02T00:04:31.183Z,102008.06
2023-05-02T00:06:58.694Z,102018.53
2023-05-02T00:09:26.240Z,102010.69
2023-05-02T00:11:53.660Z,102011.56
2023-05-02T00:14:21.063Z,102011.53
2023-05-02T00:16:48.622Z,102008.09
2023-05-02T00:19:16.882Z,102015.06
2023-05-02T00:21:44.311Z,102023.78
2023-05-02T00:24:11.700Z,102022.03
2023-05-02T00:26:39.160Z,102020.28
2023-05-02T00:29:08.064Z,102015.03
2023-05-02T00:31:36.360Z,102020.28
2023-05-02T00:34:03.860Z,102026.41
2023-05-02T00:36:31.291Z,102014.19
2023-05-02T00:38:58.723Z,102022.91
2023-05-02T00:41:26.144Z,102018.53
2023-05-02T00:43:53.634Z,102026.34
2023-05-02T00:46:21.074Z,102015.94
2023-05-02T00:48:48.465Z,102022.00
2023-05-02T00:51:15.930Z,102033.31
2023-05-02T00:53:43.493Z,102037.69
2023-05-02T00:56:10.940Z,102035.94
2023-05-02T00:58:39.762Z,102031.59
2023-05-02T01:01:07.191Z,102043.81
2023-05-02T01:03:47.316Z,102038.56
2023-05-02T01:06:35.088Z,102039.44
2023-05-02T01:09:21.239Z,102049.88
2023-05-02T01:11:48.575Z,102046.44
2023-05-02T01:14:16.157Z,102042.91
2023-05-02T01:16:45.809Z,102046.44
2023-05-02T01:19:45.854Z,102055.13
2023-05-02T01:22:14.654Z,102061.25
2023-05-02T01:25:00.949Z,102053.38
2023-05-02T01:27:28.362Z,102075.09
2023-05-02T01:29:58.240Z,102071.59
2023-05-02T01:32:25.950Z,102075.88
2023-05-02T01:34:54.251Z,102079.41
2023-05-02T01:37:22.609Z,102086.25
2023-05-02T01:39:50.802Z,102089.78
2023-05-02T01:42:19.136Z,102093.16
2023-05-02T01:44:47.263Z,102094.91
2023-05-02T01:47:15.620Z,102098.28
2023-05-02T01:49:44.471Z,102103.53
2023-05-02T01:52:12.769Z,102107.13
2023-05-02T01:54:41.041Z,102105.22
2023-05-02T01:57:09.812Z,102100.09
2023-05-02T01:59:37.974Z,102103.59
2023-05-02T02:02:07.216Z,102108.84
2023-05-02T02:04:36.429Z,102104.38
2023-05-02T02:07:07.222Z,102105.41
2023-05-02T02:09:34.647Z,102110.53
2023-05-02T02:12:12.219Z,102115.66
2023-05-02T02:14:41.058Z,102120.97
2023-05-02T02:17:13.449Z,102127.06
2023-05-02T02:19:41.946Z,102129.59
2023-05-02T02:22:09.809Z,102132.88
2023-05-02T02:24:38.716Z,102147.00
2023-05-02T02:27:06.142Z,102138.06
2023-05-02T02:29:33.780Z,102140.94
2023-05-02T02:32:01.198Z,102150.50
2023-05-02T02:34:28.633Z,102150.34
2023-05-02T02:37:02.648Z,102145.91
2023-05-02T02:39:48.684Z,102145.81
2023-05-02T02:42:19.829Z,102157.94
2023-05-02T02:44:50.018Z,102159.69
2023-05-02T02:47:23.327Z,102156.28
2023-05-02T02:49:52.536Z,102161.59
2023-05-02T02:52:19.947Z,102161.59
2023-05-02T02:54:50.059Z,102165.81
2023-05-02T02:57:19.766Z,102161.59
2023-05-02T02:59:55.756Z,102174.63
2023-05-02T03:02:28.278Z,102177.25
2023-05-02T03:04:55.968Z,102179.72
2023-05-02T03:07:23.449Z,102178.28
2023-05-02T03:09:50.913Z,102181.50
2023-05-02T03:12:18.397Z,102179.94
2023-05-02T03:14:45.995Z,102186.78
2023-05-02T03:17:13.542Z,102192.00
2023-05-02T03:19:41.042Z,102197.19
2023-05-02T03:22:08.473Z,102194.72
2023-05-02T03:24:35.891Z,102196.34
2023-05-02T03:27:03.314Z,102201.69
2023-05-02T03:29:30.763Z,102204.16
2023-05-02T03:31:58.306Z,102214.44
2023-05-02T03:34:25.825Z,102219.56
2023-05-02T03:36:53.214Z,102224.84
2023-05-02T03:39:20.669Z,102216.06
2023-05-02T03:41:48.558Z,102219.53
2023-05-02T03:44:15.971Z,102230.03
2023-05-02T03:46:43.403Z,102221.25
2023-05-02T03:49:10.993Z,102228.16
2023-05-02T03:51:38.476Z,102226.53
2023-05-02T03:54:05.867Z,102221.25
2023-05-02T03:56:33.309Z,102223.09
2023-05-02T03:59:01.330Z,102221.94
2023-05-02T04:01:28.990Z,102224.59
2023-05-02T04:03:56.417Z,102220.06
2023-05-02T04:06:23.929Z,102228.84
2023-05-02T04:08:51.416Z,102245.41
2023-05-02T04:11:18.879Z,102244.97
2023-05-02T04:13:46.315Z,102240.94
2023-05-02T04:16:13.800Z,102236.53
2023-05-02T04:18:41.158Z,102247.69
2023-05-02T04:21:09.226Z,102249.28
2023-05-02T04:23:36.650Z,102249.31
2023-05-02T04:26:04.137Z,102250.97
2023-05-02T04:28:31.630Z,102264.06
2023-05-02T04:30:59.327Z,102281.28
2023-05-02T04:33:26.734Z,102282.13
2023-05-02T04:35:54.156Z,102276.84
2023-05-02T04:38:21.613Z,102278.97
2023-05-02T04:40:51.060Z,102295.06
2023-05-02T04:43:18.497Z,102292.91
2023-05-02T04:45:46.229Z,102297.88
2023-05-02T04:48:14.040Z,102299.94
2023-05-02T04:50:41.433Z,102308.66
2023-05-02T04:53:08.790Z,102302.75
2023-05-02T04:55:36.226Z,102305.03
2023-05-02T04:58:04.550Z,102316.28
2023-05-02T05:00:31.987Z,102316.44
2023-05-02T05:03:00.933Z,102323.41
2023-05-02T05:05:29.312Z,102326.69
2023-05-02T05:07:56.805Z,102326.25
2023-05-02T05:10:24.201Z,102326.28
2023-05-02T05:12:51.642Z,102330.50
2023-05-02T05:15:21.885Z,102332.19
2023-05-02T05:17:49.461Z,102330.59
2023-05-02T05:20:16.830Z,102334.31
2023-05-02T05:22:44.312Z,102340.94
2023-05-02T05:25:12.217Z,102336.78
2023-05-02T05:27:39.820Z,102342.34
2023-05-02T05:30:08.852Z,102345.47
2023-05-02T05:32:36.631Z,102344.72
2023-05-02T05:35:04.709Z,102356.47
2023-05-02T05:37:32.115Z,102353.25
2023-05-02T05:39:59.848Z,102348.09
2023-05-02T05:42:27.568Z,102361.56
2023-05-02T05:44:55.027Z,102369.63
2023-05-02T05:47:23.056Z,102374.13
2023-05-02T05:49:57.438Z,102378.53
2023-05-02T05:52:25.130Z,102376.81
2023-05-02T05:54:56.772Z,102387.06
2023-05-02T05:57:24.456Z,102389.59
2023-05-02T05:59:52.988Z,102392.59
2023-05-02T06:02:20.821Z,102398.66
2023-05-02T06:04:48.519Z,102397.19
2023-05-02T06:07:16.177Z,102408.63
2023-05-02T06:09:43.644Z,102405.38
2023-05-02T06:12:11.058Z,102412.66
2023-05-02T06:14:38.472Z,102419.50
2023-05-02T06:17:05.912Z,102424.72
2023-05-02T06:19:33.309Z,102426.31
2023-05-02T06:22:00.699Z,102435.34
2023-05-02T06:24:28.169Z,102430.31
2023-05-02T06:26:55.621Z,102432.09
2023-05-02T06:29:23.164Z,102432.53
2023-05-02T06:31:51.467Z,102439.84
2023-05-02T06:34:19.038Z,102440.88
2023-05-02T06:36:46.548Z,102435.72
2023-05-02T06:39:13.993Z,102428.84
2023-05-02T06:41:41.755Z,102444.34
2023-05-02T06:44:09.224Z,102450.03
2023-05-02T06:46:36.946Z,102453.44
2023-05-02T06:49:04.480Z,102467.44
2023-05-02T06:51:31.925Z,102474.22
2023-05-02T06:53:59.394Z,102487.41
2023-05-02T06:56:26.927Z,102492.88
2023-05-02T06:58:54.407Z,102483.81
2023-05-02T07:01:21.871Z,102487.72
2023-05-02T07:03:49.397Z,102488.41
2023-05-02T07:06:17.037Z,102495.78
2023-05-02T07:08:44.467Z,102499.84
2023-05-02T07:11:11.902Z,102506.16
2023-05-02T07:13:39.340Z,102508.78
2023-05-02T07:16:07.246Z,102505.41
2023-05-02T07:18:34.688Z,102506.63
2023-05-02T07:21:02.167Z,102509.53
2023-05-02T07:23:29.616Z,102523.78
2023-05-02T07:25:57.158Z,102527.00
2023-05-02T07:28:24.552Z,102530.69
2023-05-02T07:30:52.252Z,102531.47
2023-05-02T07:33:19.702Z,102535.66
2023-05-02T07:35:47.305Z,102534.69
2023-05-02T07:38:14.719Z,102537.69
2023-05-02T07:40:43.423Z,102538.44
2023-05-02T07:43:11.397Z,102543.03
2023-05-02T07:45:38.948Z,102533.13
2023-05-02T07:48:06.620Z,102535.84
2023-05-02T07:50:34.212Z,102537.88
2023-05-02T07:53:01.934Z,102546.78
2023-05-02T07:55:30.534Z,102546.28
2023-05-02T07:57:58.017Z,102548.31
2023-05-02T08:00:25.568Z,102537.84
2023-05-02T08:02:53.141Z,102549.44
2023-05-02T08:05:20.836Z,102560.59
2023-05-02T08:07:48.272Z,102555.31
2023-05-02T08:10:15.758Z,102555.28
2023-05-02T08:12:43.573Z,102557.91
2023-05-02T08:15:12.946Z,102564.38
2023-05-02T08:17:40.435Z,102569.88
2023-05-02T08:20:08.249Z,102569.84
2023-05-02T08:22:35.698Z,102571.19
2023-05-02T08:25:03.186Z,102565.53
2023-05-02T08:27:30.647Z,102583.72
2023-05-02T08:29:59.403Z,102584.13
2023-05-02T08:32:30.140Z,102580.66
2023-05-02T08:34:57.847Z,102587.81
2023-05-02T08:37:25.805Z,102595.63
2023-05-02T08:39:53.264Z,102590.88
2023-05-02T08:42:21.725Z,102595.47
2023-05-02T08:44:52.483Z,102600.25
2023-05-02T08:47:21.708Z,102609.81
2023-05-02T08:49:49.810Z,102605.75
2023-05-02T08:52:18.379Z,102601.88
2023-05-02T08:54:46.273Z,102612.97
2023-05-02T08:57:13.742Z,102608.63
2023-05-02T08:59:41.224Z,102611.69
2023-05-02T09:02:19.059Z,102612.94
2023-05-02T09:04:52.638Z,102617.97
2023-05-02T09:07:20.008Z,102618.84
2023-05-02T09:09:47.492Z,102620.78
2023-05-02T09:12:16.343Z,102628.09
2023-05-02T09:14:44.848Z,102626.47
2023-05-02T09:17:12.297Z,102622.19
2023-05-02T09:19:39.722Z,102631.53
2023-05-02T09:22:07.183Z,102628.34
2023-05-02T09:24:34.874Z,102630.25
2023-05-02T09:27:02.728Z,102634.13
2023-05-02T09:29:35.899Z,102637.06
2023-05-02T09:32:04.292Z,102649.56
2023-05-02T09:34:31.971Z,102651.78
2023-05-02T09:36:59.438Z,102649.22
2023-05-02T09:39:29.092Z,102656.84
2023-05-02T09:41:56.892Z,102637.78
2023-05-02T09:44:25.317Z,102620.47
2023-05-02T09:46:53.556Z,102652.75
2023-05-02T09:49:39.738Z,102641.25
2023-05-02T09:52:13.944Z,102645.06
2023-05-02T09:54:41.508Z,102642.56
2023-05-02T09:57:10.616Z,102647.22
2023-05-02T09:59:38.113Z,102639.38
2023-05-02T10:02:07.223Z,102644.63
2023-05-02T10:04:35.236Z,102645.47
2023-05-02T10:07:03.503Z,102643.69
2023-05-02T10:09:32.589Z,102665.47
2023-05-02T10:12:05.035Z,102669.97
2023-05-02T10:14:32.872Z,102666.50
2023-05-02T10:17:06.555Z,102663.88
2023-05-02T10:19:43.192Z,102655.00
2023-05-02T10:22:11.582Z,102650.75
2023-05-02T10:24:39.608Z,102662.13
2023-05-02T10:27:07.024Z,102670.00
2023-05-02T10:29:34.866Z,102662.91
2023-05-02T10:32:04.574Z,102671.72
2023-05-02T10:34:33.809Z,102666.47
2023-05-02T10:37:02.289Z,102662.16
2023-05-02T10:39:30.100Z,102666.50
2023-05-02T10:41:59.098Z,102675.28
2023-05-02T10:44:40.547Z,102681.31
2023-05-02T10:47:27.555Z,102667.25
2023-05-02T10:49:56.894Z,102672.50
2023-05-02T10:52:27.499Z,102676.63
2023-05-02T10:55:14.604Z,102680.91
2023-05-02T10:58:00.923Z,102685.78
2023-05-02T11:00:35.185Z,102692.75
2023-05-02T11:03:03.548Z,102688.38
2023-05-02T11:05:31.131Z,102679.94
2023-05-02T11:08:17.184Z,102682.94
2023-05-02T11:10:46.335Z,102687.25
2023-05-02T11:13:13.806Z,102698.03
2023-05-02T11:15:41.293Z,102697.16
2023-05-02T11:18:09.753Z,102693.59
2023-05-02T11:20:39.490Z,102692.66
2023-05-02T11:23:16.458Z,102690.75
2023-05-02T11:25:45.159Z,102701.28
2023-05-02T11:28:31.437Z,102707.53
2023-05-02T11:30:59.040Z,102700.44
2023-05-02T11:33:26.703Z,102703.19
2023-05-02T11:35:54.124Z,102704.06
2023-05-02T11:38:22.222Z,102704.81
2023-05-02T11:40:57.514Z,102706.56
2023-05-02T11:43:26.160Z,102688.50
2023-05-02T11:45:54.354Z,102693.09
2023-05-02T11:48:23.277Z,102694.63
2023-05-02T11:50:52.125Z,102705.22
2023-05-02T11:53:22.403Z,102715.41
2023-05-02T11:55:57.317Z,102710.91
2023-05-02T11:58:26.155Z,102709.22
2023-05-02T12:00:54.300Z,102710.97
2023-05-02T12:03:31.858Z,102703.78
2023-05-02T12:06:09.472Z,102726.34
2023-05-02T12:08:37.052Z,102717.81
2023-05-02T12:11:04.469Z,102714.34
2023-05-02T12:13:31.909Z,102727.28
2023-05-02T12:15:59.538Z,102729.25
2023-05-02T12:18:27.457Z,102729.28
2023-05-02T12:20:56.080Z,102716.06
2023-05-02T12:23:25.933Z,102713.69
2023-05-02T12:25:53.547Z,102728.13
2023-05-02T12:28:23.827Z,102735.88
2023-05-02T12:30:51.864Z,102739.56
2023-05-02T12:33:19.652Z,102743.31
2023-05-02T12:35:48.097Z,102733.88
2023-05-02T12:38:20.393Z,102751.88
2023-05-02T12:40:48.992Z,102739.31
2023-05-02T12:43:16.463Z,102761.31
2023-05-02T12:45:43.864Z,102759.91
2023-05-02T12:48:24.250Z,102765.66
2023-05-02T12:50:51.874Z,102741.59
2023-05-02T12:53:19.399Z,102741.53
2023-05-02T12:55:46.876Z,102740.38
2023-05-02T12:58:14.646Z,102746.56
2023-05-02T13:00:44.796Z,102753.75
2023-05-02T13:03:13.093Z,102750.19
2023-05-02T13:05:40.756Z,102745.44
2023-05-02T13:08:08.119Z,102758.78
2023-05-02T13:10:35.537Z,102740.97
2023-05-02T13:13:03.567Z,102731.13
2023-05-02T13:15:31.037Z,102756.00
2023-05-02T13:17:58.628Z,102742.78
2023-05-02T13:20:26.132Z,102752.28
2023-05-02T13:22:53.875Z,102740.78
2023-05-02T13:25:21.504Z,102757.34
2023-05-02T13:27:48.924Z,102759.25
2023-05-02T13:30:16.369Z,102755.34
2023-05-02T13:32:43.813Z,102760.91
2023-05-02T13:35:13.938Z,102769.69
2023-05-02T13:37:41.934Z,102762.22
2023-05-02T13:40:09.932Z,102774.94
2023-05-02T13:42:37.419Z,102774.03
2023-05-02T13:45:06.576Z,102774.97
2023-05-02T13:47:34.164Z,102774.88
2023-05-02T13:50:01.964Z,102771.22
2023-05-02T13:52:29.691Z,102768.78
2023-05-02T13:54:57.071Z,102781.88
2023-05-02T13:57:24.634Z,102770.47
2023-05-02T13:59:52.528Z,102776.41
2023-05-02T14:02:19.980Z,102777.09
2023-05-02T14:04:47.388Z,102761.72
2023-05-02T14:07:14.865Z,102782.91
2023-05-02T14:09:42.292Z,102775.91
2023-05-02T14:12:10.305Z,102778.53
2023-05-02T14:14:38.158Z,102776.69
2023-05-02T14:17:05.667Z,102770.69
2023-05-02T14:19:33.067Z,102772.44
2023-05-02T14:22:00.603Z,102780.31
2023-05-02T14:24:27.987Z,102754.00
2023-05-02T14:26:55.486Z,102779.25
2023-05-02T14:29:22.963Z,102775.63
2023-05-02T14:31:50.469Z,102777.38
2023-05-02T14:34:18.063Z,102776.47
2023-05-02T14:36:45.565Z,102773.84
2023-05-02T14:39:13.199Z,102785.31
2023-05-02T14:41:40.678Z,102786.03
2023-05-02T14:44:08.093Z,102781.50
2023-05-02T14:46:35.677Z,102778.84
2023-05-02T14:49:03.206Z,102785.16
2023-05-02T14:51:31.837Z,102786.03
2023-05-02T14:53:59.831Z,102781.63
2023-05-02T14:56:27.513Z,102779.84
2023-05-02T14:58:55.081Z,102767.75
2023-05-02T15:01:23.313Z,102776.44
2023-05-02T15:04:06.007Z,102753.78
2023-05-02T15:06:35.179Z,102772.91
2023-05-02T15:09:03.216Z,102780.88
2023-05-02T15:11:32.199Z,102770.72
2023-05-02T15:13:59.798Z,102769.44
2023-05-02T15:16:28.427Z,102770.88
2023-05-02T15:18:56.038Z,102783.00
2023-05-02T15:21:23.787Z,102777.84
2023-05-02T15:23:51.430Z,102779.59
2023-05-02T15:26:18.986Z,102775.94
2023-05-02T15:28:47.430Z,102786.53
2023-05-02T15:31:19.866Z,102776.19
2023-05-02T15:33:47.260Z,102784.75
2023-05-02T15:36:17.124Z,102779.59
2023-05-02T15:38:44.734Z,102791.44
2023-05-02T15:41:12.112Z,102789.81
2023-05-02T15:43:39.549Z,102795.31
2023-05-02T15:46:09.424Z,102795.03
2023-05-02T15:48:38.761Z,102780.81
2023-05-02T15:51:06.500Z,102791.28
2023-05-02T15:53:34.691Z,102785.19
2023-05-02T15:56:02.159Z,102791.03
2023-05-02T15:58:29.627Z,102794.19
2023-05-02T16:00:57.115Z,102794.19
2023-05-02T16:03:24.535Z,102790.94
2023-05-02T16:05:53.776Z,102793.34
2023-05-02T16:08:21.349Z,102801.78
2023-05-02T16:10:48.792Z,102800.91
2023-05-02T16:13:16.296Z,102802.13
2023-05-02T16:15:43.827Z,102801.75
2023-05-02T16:18:11.528Z,102810.00
2023-05-02T16:20:39.699Z,102809.25
2023-05-02T16:23:08.298Z,102803.31
2023-05-02T16:25:36.006Z,102801.41
2023-05-02T16:28:03.472Z,102795.47
2023-05-02T16:30:30.892Z,102790.75
2023-05-02T16:32:58.449Z,102790.25
2023-05-02T16:35:26.003Z,102801.28
2023-05-02T16:37:53.575Z,102805.31
2023-05-02T16:40:21.056Z,102807.16
2023-05-02T16:42:48.734Z,102795.94
2023-05-02T16:45:17.193Z,102800.25
2023-05-02T16:47:44.752Z,102801.91
2023-05-02T16:50:12.607Z,102797.78
2023-05-02T16:52:40.113Z,102801.13
2023-05-02T16:55:07.771Z,102806.34
2023-05-02T16:57:35.277Z,102809.78
2023-05-02T17:00:03.383Z,102818.59
2023-05-02T17:02:31.113Z,102813.69
2023-05-02T17:04:58.589Z,102819.44
2023-05-02T17:07:26.012Z,102793.84
2023-05-02T17:09:55.037Z,102802.28
2023-05-02T17:12:22.984Z,102810.81
2023-05-02T17:14:51.686Z,102805.94
2023-05-02T17:17:22.694Z,102807.56
2023-05-02T17:19:51.312Z,102804.19
2023-05-02T17:22:19.002Z,102805.81
2023-05-02T17:24:48.395Z,102805.75
2023-05-02T17:27:15.933Z,102822.16
2023-05-02T17:29:43.461Z,102809.59
2023-05-02T17:32:11.368Z,102810.19
2023-05-02T17:34:39.209Z,102817.91
2023-05-02T17:37:07.947Z,102828.81
2023-05-02T17:39:35.376Z,102821.63
2023-05-02T17:42:02.898Z,102834.66
2023-05-02T17:44:31.480Z,102840.13
2023-05-02T17:46:59.143Z,102834.34
2023-05-02T17:49:26.594Z,102820.19
2023-05-02T17:51:54.022Z,102829.09
2023-05-02T17:54:21.578Z,102828.13
2023-05-02T17:56:50.549Z,102829.25
2023-05-02T17:59:18.831Z,102834.97
2023-05-02T18:01:46.252Z,102836.16
2023-05-02T18:04:14.921Z,102842.84
2023-05-02T18:06:42.394Z,102844.22
2023-05-02T18:09:09.755Z,102845.22
2023-05-02T18:11:37.582Z,102855.81
2023-05-02T18:14:06.155Z,102855.34
2023-05-02T18:16:36.147Z,102848.19
2023-05-02T18:19:03.955Z,102848.03
2023-05-02T18:21:33.901Z,102857.75
2023-05-02T18:24:01.345Z,102860.16
2023-05-02T18:26:28.869Z,102863.09
2023-05-02T18:28:57.374Z,102852.97
2023-05-02T18:31:24.869Z,102853.63
2023-05-02T18:33:54.152Z,102848.56
2023-05-02T18:36:25.644Z,102842.09
2023-05-02T18:38:53.119Z,102839.69
2023-05-02T18:41:20.572Z,102856.69
2023-05-02T18:43:48.320Z,102860.19
2023-05-02T18:46:15.883Z,102858.31
2023-05-02T18:48:43.510Z,102864.69
2023-05-02T18:51:10.985Z,102866.19
2023-05-02T18:53:38.428Z,102865.66
2023-05-02T18:56:12.280Z,102869.94
2023-05-02T18:58:39.687Z,102867.72
2023-05-02T19:01:16.846Z,102862.03
2023-05-02T19:03:44.535Z,102862.75
2023-05-02T19:06:12.424Z,102866.78
2023-05-02T19:08:40.265Z,102864.59
2023-05-02T19:11:09.031Z,102879.72
2023-05-02T19:13:36.505Z,102873.31
2023-05-02T19:16:03.949Z,102875.09
2023-05-02T19:18:31.545Z,102890.34
2023-05-02T19:20:59.915Z,102889.88
2023-05-02T19:23:27.346Z,102891.16
2023-05-02T19:25:54.793Z,102897.63
2023-05-02T19:28:22.908Z,102887.19
2023-05-02T19:30:51.442Z,102887.94
2023-05-02T19:33:19.290Z,102898.94
2023-05-02T19:35:47.815Z,102903.75
2023-05-02T19:38:15.547Z,102900.16
2023-05-02T19:40:42.989Z,102896.50
2023-05-02T19:43:10.935Z,102892.75
2023-05-02T19:45:38.590Z,102901.22
2023-05-02T19:48:07.200Z,102892.00
2023-05-02T19:50:34.672Z,102891.75
2023-05-02T19:53:04.374Z,102895.84
2023-05-02T19:55:31.792Z,102901.22
2023-05-02T19:58:00.364Z,102910.41
2023-05-02T20:00:27.856Z,102908.09
2023-05-02T20:02:55.489Z,102914.91
2023-05-02T20:05:23.017Z,102920.41
2023-05-02T20:07:50.502Z,102919.81
2023-05-02T20:10:18.808Z,102921.59
2023-05-02T20:12:46.984Z,102915.16
2023-05-02T20:15:15.986Z,102918.72
2023-05-02T20:17:43.733Z,102928.13
2023-05-02T20:20:11.717Z,102931.47
2023-05-02T20:22:39.955Z,102924.88
2023-05-02T20:25:08.712Z,102936.72
2023-05-02T20:27:36.279Z,102924.25
2023-05-02T20:30:04.049Z,102929.47
2023-05-02T20:32:33.015Z,102939.34
2023-05-02T20:35:00.593Z,102948.06
2023-05-02T20:37:28.212Z,102935.63
2023-05-02T20:39:55.922Z,102947.28
2023-05-02T20:42:25.899Z,102951.31
2023-05-02T20:44:54.853Z,102946.88
2023-05-02T20:47:22.621Z,102945.13
2023-05-02T20:49:50.459Z,102955.63
2023-05-02T20:52:17.906Z,102952.03
2023-05-02T20:54:45.365Z,102943.97
2023-05-02T20:57:16.374Z,102945.50
2023-05-02T20:59:44.192Z,102955.44
2023-05-02T21:02:13.049Z,102952.03
2023-05-02T21:04:41.987Z,102947.47
2023-05-02T21:07:09.395Z,102942.38
2023-05-02T21:09:36.788Z,102939.41
2023-05-02T21:12:04.358Z,102940.50
2023-05-02T21:14:31.767Z,102947.75
2023-05-02T21:16:59.339Z,102940.22
2023-05-02T21:19:26.757Z,102933.84
2023-05-02T21:21:54.131Z,102935.16
2023-05-02T21:24:21.543Z,102938.16
2023-05-02T21:26:48.997Z,102930.69
2023-05-02T21:29:16.710Z,102931.38
2023-05-02T21:31:44.261Z,102935.75
2023-05-02T21:34:11.922Z,102934.63
2023-05-02T21:36:39.381Z,102932.66
2023-05-02T21:39:06.985Z,102938.19
2023-05-02T21:41:34.921Z,102939.81
2023-05-02T21:44:02.460Z,102942.31
2023-05-02T21:46:29.920Z,102942.97
2023-05-02T21:48:57.364Z,102939.41
2023-05-02T21:51:24.717Z,102939.97
2023-05-02T21:53:53.399Z,102937.28
2023-05-02T21:56:20.872Z,102938.28
2023-05-02T21:58:51.126Z,102927.66
2023-05-02T22:01:18.812Z,102921.13
2023-05-02T22:03:46.367Z,102928.53
2023-05-02T22:06:14.388Z,102921.88
2023-05-02T22:08:41.959Z,102918.47
2023-05-02T22:11:09.546Z,102913.69
2023-05-02T22:13:37.290Z,102911.28
2023-05-02T22:16:04.954Z,102916.06
2023-05-02T22:18:32.514Z,102914.31
2023-05-02T22:21:02.099Z,102912.88
2023-05-02T22:23:31.095Z,102915.09
2023-05-02T22:25:58.764Z,102914.00
2023-05-02T22:28:26.910Z,102907.91
2023-05-02T22:30:54.766Z,102917.84
2023-05-02T22:33:22.232Z,102914.59
2023-05-02T22:35:49.762Z,102917.13
2023-05-02T22:38:17.644Z,102929.25
2023-05-02T22:40:45.066Z,102924.47
2023-05-02T22:43:12.457Z,102925.41
2023-05-02T22:45:40.672Z,102926.69
2023-05-02T22:48:08.262Z,102925.31
2023-05-02T22:50:35.648Z,102933.66
2023-05-02T22:53:03.757Z,102928.75
2023-05-02T22:55:31.652Z,102932.03
2023-05-02T22:57:59.237Z,102931.59
2023-05-02T23:00:26.989Z,102930.63
2023-05-02T23:02:54.513Z,102925.41
2023-05-02T23:05:22.221Z,102921.75
2023-05-02T23:07:50.048Z,102932.56
2023-05-02T23:10:17.453Z,102936.66
2023-05-02T23:12:44.903Z,102929.84
2023-05-02T23:15:12.604Z,102926.53
2023-05-02T23:17:41.253Z,102930.59
2023-05-02T23:20:10.165Z,102930.69
2023-05-02T23:22:38.202Z,102933.19
2023-05-02T23:25:06.890Z,102936.34
2023-05-02T23:27:34.347Z,102937.09
2023-05-02T23:30:02.044Z,102936.78
2023-05-02T23:32:29.805Z,102950.59
2023-05-02T23:34:57.628Z,102958.72
2023-05-02T23:37:24.997Z,102952.72
2023-05-02T23:39:52.419Z,102953.09
2023-05-02T23:42:20.068Z,102962.94
2023-05-02T23:44:47.483Z,102966.03
2023-05-02T23:47:14.851Z,102962.28
2023-05-02T23:49:42.311Z,102965.34
2023-05-02T23:52:09.674Z,102964.44
2023-05-02T23:54:37.083Z,102970.41
2023-05-02T23:57:04.507Z,102961.72
2023-05-02T23:59:31.857Z,102971.97
